sensor_id;sensor_type;location;lat;lon;timestamp;pressure;altitude;pressure_sealevel;temperature;humidity
16094;BME280;8151;47.824;12.092;2023-12-20T00:00:14;96372.84;;;5.18;63.36
16094;BME280;8151;47.824;12.092;2023-12-20T00:02:43;96374.75;;;5.16;63.29
16094;BME280;8151;47.824;12.092;2023-12-20T00:05:14;96369.09;;;5.10;63.38
16094;BME280;8151;47.824;12.092;2023-12-20T00:07:42;96363.28;;;5.07;63.12
16094;BME280;8151;47.824;12.092;2023-12-20T00:10:11;96356.66;;;5.03;63.64
16094;BME280;8151;47.824;12.092;2023-12-20T00:12:40;96348.34;;;4.98;63.72
16094;BME280;8151;47.824;12.092;2023-12-20T00:15:10;96343.22;;;4.96;63.63
16094;BME280;8151;47.824;12.092;2023-12-20T00:17:39;96342.41;;;4.96;63.87
16094;BME280;8151;47.824;12.092;2023-12-20T00:20:08;96339.22;;;4.92;63.91
16094;BME280;8151;47.824;12.092;2023-12-20T00:22:37;96325.56;;;4.88;64.02
16094;BME280;8151;47.824;12.092;2023-12-20T00:25:06;96311.06;;;4.84;64.50
16094;BME280;8151;47.824;12.092;2023-12-20T00:27:35;96312.59;;;4.87;64.50
16094;BME280;8151;47.824;12.092;2023-12-20T00:30:04;96317.00;;;4.86;63.99
16094;BME280;8151;47.824;12.092;2023-12-20T00:32:34;96306.38;;;4.88;64.14
16094;BME280;8151;47.824;12.092;2023-12-20T00:35:04;96310.09;;;4.85;63.95
16094;BME280;8151;47.824;12.092;2023-12-20T00:37:32;96314.22;;;4.78;64.55
16094;BME280;8151;47.824;12.092;2023-12-20T00:40:01;96302.59;;;4.71;64.28
16094;BME280;8151;47.824;12.092;2023-12-20T00:42:29;96296.50;;;4.61;65.13
16094;BME280;8151;47.824;12.092;2023-12-20T00:44:58;96295.38;;;4.53;64.86
16094;BME280;8151;47.824;12.092;2023-12-20T00:47:26;96289.03;;;4.46;64.76
16094;BME280;8151;47.824;12.092;2023-12-20T00:49:57;96284.72;;;4.45;64.81
16094;BME280;8151;47.824;12.092;2023-12-20T00:52:25;96274.13;;;4.47;64.82
16094;BME280;8151;47.824;12.092;2023-12-20T00:54:54;96275.06;;;4.46;64.90
16094;BME280;8151;47.824;12.092;2023-12-20T00:57:22;96273.31;;;4.46;65.08
16094;BME280;8151;47.824;12.092;2023-12-20T00:59:51;96267.22;;;4.46;64.90
16094;BME280;8151;47.824;12.092;2023-12-20T01:02:19;96254.13;;;4.46;64.82
16094;BME280;8151;47.824;12.092;2023-12-20T01:04:47;96261.84;;;4.47;65.24
16094;BME280;8151;47.824;12.092;2023-12-20T01:07:17;96255.22;;;4.43;64.97
16094;BME280;8151;47.824;12.092;2023-12-20T01:09:46;96254.81;;;4.38;65.31
16094;BME280;8151;47.824;12.092;2023-12-20T01:12:14;96245.28;;;4.37;65.67
16094;BME280;8151;47.824;12.092;2023-12-20T01:14:43;96243.47;;;4.38;65.43
16094;BME280;8151;47.824;12.092;2023-12-20T01:17:11;96247.91;;;4.37;65.08
16094;BME280;8151;47.824;12.092;2023-12-20T01:19:40;96240.97;;;4.36;65.62
16094;BME280;8151;47.824;12.092;2023-12-20T01:22:08;96247.91;;;4.37;65.66
16094;BME280;8151;47.824;12.092;2023-12-20T01:24:38;96242.91;;;4.34;65.32
16094;BME280;8151;47.824;12.092;2023-12-20T01:27:07;96237.94;;;4.31;66.14
16094;BME280;8151;47.824;12.092;2023-12-20T01:29:35;96240.69;;;4.29;66.17
16094;BME280;8151;47.824;12.092;2023-12-20T01:32:04;96238.66;;;4.33;66.36
16094;BME280;8151;47.824;12.092;2023-12-20T01:34:33;96234.53;;;4.40;65.67
16094;BME280;8151;47.824;12.092;2023-12-20T01:37:02;96231.75;;;4.42;66.12
16094;BME280;8151;47.824;12.092;2023-12-20T01:39:31;96238.69;;;4.43;66.22
16094;BME280;8151;47.824;12.092;2023-12-20T01:42:01;96226.69;;;4.40;65.68
16094;BME280;8151;47.824;12.092;2023-12-20T01:44:29;96223.50;;;4.37;65.99
16094;BME280;8151;47.824;12.092;2023-12-20T01:46:57;96228.16;;;4.33;66.17
16094;BME280;8151;47.824;12.092;2023-12-20T01:49:26;96223.19;;;4.30;65.79
16094;BME280;8151;47.824;12.092;2023-12-20T01:51:55;96210.09;;;4.30;66.10
16094;BME280;8151;47.824;12.092;2023-12-20T01:54:23;96226.78;;;4.29;66.12
16094;BME280;8151;47.824;12.092;2023-12-20T01:56:52;96215.28;;;4.20;65.87
16094;BME280;8151;47.824;12.092;2023-12-20T01:59:22;96207.72;;;4.17;66.04
16094;BME280;8151;47.824;12.092;2023-12-20T02:01:51;96212.50;;;4.12;66.25
16094;BME280;8151;47.824;12.092;2023-12-20T02:04:20;96202.16;;;4.10;66.47
16094;BME280;8151;47.824;12.092;2023-12-20T02:06:52;96202.63;;;4.16;66.32
16094;BME280;8151;47.824;12.092;2023-12-20T02:09:21;96209.38;;;4.18;66.30
16094;BME280;8151;47.824;12.092;2023-12-20T02:11:50;96206.75;;;4.18;66.49
16094;BME280;8151;47.824;12.092;2023-12-20T02:14:18;96208.41;;;4.19;66.31
16094;BME280;8151;47.824;12.092;2023-12-20T02:16:48;96209.25;;;4.20;66.79
16094;BME280;8151;47.824;12.092;2023-12-20T02:19:17;96214.03;;;4.14;66.98
16094;BME280;8151;47.824;12.092;2023-12-20T02:21:48;96198.59;;;4.11;66.96
16094;BME280;8151;47.824;12.092;2023-12-20T02:24:17;96200.13;;;4.14;66.79
16094;BME280;8151;47.824;12.092;2023-12-20T02:26:46;96199.00;;;4.17;66.83
16094;BME280;8151;47.824;12.092;2023-12-20T02:29:14;96190.91;;;4.20;66.24
16094;BME280;8151;47.824;12.092;2023-12-20T02:31:42;96182.94;;;4.21;66.77
16094;BME280;8151;47.824;12.092;2023-12-20T02:34:11;96164.47;;;4.23;66.29
16094;BME280;8151;47.824;12.092;2023-12-20T02:36:39;96172.56;;;4.20;66.79
16094;BME280;8151;47.824;12.092;2023-12-20T02:39:09;96176.72;;;4.22;66.92
16094;BME280;8151;47.824;12.092;2023-12-20T02:41:38;96178.75;;;4.19;66.93
16094;BME280;8151;47.824;12.092;2023-12-20T02:44:06;96167.75;;;4.15;66.70
16094;BME280;8151;47.824;12.092;2023-12-20T02:46:35;96166.78;;;4.16;67.07
16094;BME280;8151;47.824;12.092;2023-12-20T02:49:03;96164.03;;;4.18;66.73
16094;BME280;8151;47.824;12.092;2023-12-20T02:51:32;96159.91;;;4.15;66.68
16094;BME280;8151;47.824;12.092;2023-12-20T02:54:00;96159.59;;;4.08;67.26
16094;BME280;8151;47.824;12.092;2023-12-20T02:56:30;96167.84;;;4.04;67.27
16094;BME280;8151;47.824;12.092;2023-12-20T02:58:58;96167.03;;;4.03;67.00
16094;BME280;8151;47.824;12.092;2023-12-20T03:01:27;96156.56;;;4.03;67.55
16094;BME280;8151;47.824;12.092;2023-12-20T03:03:56;96147.03;;;4.02;67.38
16094;BME280;8151;47.824;12.092;2023-12-20T03:06:25;96140.84;;;4.03;67.12
16094;BME280;8151;47.824;12.092;2023-12-20T03:08:53;96134.50;;;4.06;67.42
16094;BME280;8151;47.824;12.092;2023-12-20T03:11:26;96124.44;;;4.11;67.62
16094;BME280;8151;47.824;12.092;2023-12-20T03:13:56;96117.03;;;4.16;67.02
16094;BME280;8151;47.824;12.092;2023-12-20T03:16:25;96115.78;;;4.20;66.95
16094;BME280;8151;47.824;12.092;2023-12-20T03:18:53;96117.16;;;4.24;67.07
16094;BME280;8151;47.824;12.092;2023-12-20T03:21:22;96122.16;;;4.27;67.27
16094;BME280;8151;47.824;12.092;2023-12-20T03:23:50;96113.31;;;4.28;67.05
16094;BME280;8151;47.824;12.092;2023-12-20T03:26:19;96126.16;;;4.31;67.51
16094;BME280;8151;47.824;12.092;2023-12-20T03:28:49;96133.06;;;4.32;67.16
16094;BME280;8151;47.824;12.092;2023-12-20T03:31:19;96128.78;;;4.31;67.04
16094;BME280;8151;47.824;12.092;2023-12-20T03:33:48;96130.44;;;4.32;66.81
16094;BME280;8151;47.824;12.092;2023-12-20T03:36:18;96115.00;;;4.29;67.20
16094;BME280;8151;47.824;12.092;2023-12-20T03:38:46;96128.91;;;4.30;67.47
16094;BME280;8151;47.824;12.092;2023-12-20T03:41:15;96124.34;;;4.32;67.65
16094;BME280;8151;47.824;12.092;2023-12-20T03:43:43;96132.09;;;4.33;67.22
16094;BME280;8151;47.824;12.092;2023-12-20T03:46:11;96132.09;;;4.33;67.43
16094;BME280;8151;47.824;12.092;2023-12-20T03:48:41;96133.75;;;4.34;67.43
16094;BME280;8151;47.824;12.092;2023-12-20T03:51:10;96131.97;;;4.35;67.24
16094;BME280;8151;47.824;12.092;2023-12-20T03:53:38;96137.31;;;4.33;67.74
16094;BME280;8151;47.824;12.092;2023-12-20T03:56:07;96126.59;;;4.37;67.27
16094;BME280;8151;47.824;12.092;2023-12-20T03:58:36;96127.00;;;4.42;67.70
16094;BME280;8151;47.824;12.092;2023-12-20T04:01:09;96119.44;;;4.48;67.24
16094;BME280;8151;47.824;12.092;2023-12-20T04:03:38;96131.28;;;4.52;67.47
16094;BME280;8151;47.824;12.092;2023-12-20T04:06:09;96131.56;;;4.59;67.42
16094;BME280;8151;47.824;12.092;2023-12-20T04:08:37;96123.56;;;4.70;67.52
16094;BME280;8151;47.824;12.092;2023-12-20T04:11:05;96132.97;;;4.83;67.32
16094;BME280;8151;47.824;12.092;2023-12-20T04:13:34;96131.16;;;4.93;67.00
16094;BME280;8151;47.824;12.092;2023-12-20T04:16:03;96130.72;;;5.07;66.56
16094;BME280;8151;47.824;12.092;2023-12-20T04:18:31;96131.00;;;5.24;66.54
16094;BME280;8151;47.824;12.092;2023-12-20T04:21:00;96146.94;;;5.50;65.32
16094;BME280;8151;47.824;12.092;2023-12-20T04:23:30;96144.91;;;5.81;64.61
16094;BME280;8151;47.824;12.092;2023-12-20T04:25:58;96149.25;;;6.10;64.01
16094;BME280;8151;47.824;12.092;2023-12-20T04:28:27;96145.09;;;6.35;63.88
16094;BME280;8151;47.824;12.092;2023-12-20T04:30:57;96155.22;;;6.58;63.07
16094;BME280;8151;47.824;12.092;2023-12-20T04:33:26;96161.00;;;6.79;62.87
16094;BME280;8151;47.824;12.092;2023-12-20T04:35:54;96159.13;;;6.89;62.83
16094;BME280;8151;47.824;12.092;2023-12-20T04:38:22;96165.84;;;7.02;62.50
16094;BME280;8151;47.824;12.092;2023-12-20T04:40:52;96168.53;;;7.10;62.47
16094;BME280;8151;47.824;12.092;2023-12-20T04:43:21;96177.63;;;7.16;62.46
16094;BME280;8151;47.824;12.092;2023-12-20T04:45:49;96188.81;;;7.18;62.63
16094;BME280;8151;47.824;12.092;2023-12-20T04:48:18;96190.59;;;7.17;62.91
16094;BME280;8151;47.824;12.092;2023-12-20T04:50:46;96184.91;;;7.22;63.41
16094;BME280;8151;47.824;12.092;2023-12-20T04:53:14;96194.97;;;7.26;63.27
16094;BME280;8151;47.824;12.092;2023-12-20T04:55:43;96196.63;;;7.27;63.22
16094;BME280;8151;47.824;12.092;2023-12-20T04:58:13;96197.75;;;7.25;63.77
16094;BME280;8151;47.824;12.092;2023-12-20T05:00:41;96201.50;;;7.22;64.09
16094;BME280;8151;47.824;12.092;2023-12-20T05:03:10;96221.59;;;7.23;64.40
16094;BME280;8151;47.824;12.092;2023-12-20T05:05:38;96210.91;;;7.25;64.44
16094;BME280;8151;47.824;12.092;2023-12-20T05:08:07;96229.63;;;7.22;64.79
16094;BME280;8151;47.824;12.092;2023-12-20T05:10:35;96220.53;;;7.16;65.37
16094;BME280;8151;47.824;12.092;2023-12-20T05:13:04;96198.28;;;7.10;66.01
16094;BME280;8151;47.824;12.092;2023-12-20T05:15:34;96184.59;;;7.07;66.45
16094;BME280;8151;47.824;12.092;2023-12-20T05:18:03;96181.28;;;7.05;66.55
16094;BME280;8151;47.824;12.092;2023-12-20T05:20:32;96207.06;;;7.01;67.02
16094;BME280;8151;47.824;12.092;2023-12-20T05:23:00;96205.03;;;6.95;67.39
16094;BME280;8151;47.824;12.092;2023-12-20T05:25:28;96204.50;;;6.92;67.72
16094;BME280;8151;47.824;12.092;2023-12-20T05:27:57;96215.50;;;6.87;68.16
16094;BME280;8151;47.824;12.092;2023-12-20T05:30:26;96208.75;;;6.84;68.57
16094;BME280;8151;47.824;12.092;2023-12-20T05:32:56;96207.22;;;6.82;68.84
16094;BME280;8151;47.824;12.092;2023-12-20T05:35:24;96209.16;;;6.80;69.03
16094;BME280;8151;47.824;12.092;2023-12-20T05:37:53;96214.56;;;6.78;69.63
16094;BME280;8151;47.824;12.092;2023-12-20T05:40:22;96208.63;;;6.76;69.59
16094;BME280;8151;47.824;12.092;2023-12-20T05:42:51;96211.13;;;6.78;70.17
16094;BME280;8151;47.824;12.092;2023-12-20T05:45:19;96214.75;;;6.77;70.11
16094;BME280;8151;47.824;12.092;2023-12-20T05:47:48;96218.31;;;6.76;70.46
16094;BME280;8151;47.824;12.092;2023-12-20T05:50:17;96225.94;;;6.79;70.41
16094;BME280;8151;47.824;12.092;2023-12-20T05:52:46;96226.75;;;6.79;70.75
16094;BME280;8151;47.824;12.092;2023-12-20T05:55:14;96228.25;;;6.82;70.75
16094;BME280;8151;47.824;12.092;2023-12-20T05:57:43;96231.69;;;6.82;70.94
16094;BME280;8151;47.824;12.092;2023-12-20T06:00:13;96239.75;;;6.81;71.13
16094;BME280;8151;47.824;12.092;2023-12-20T06:02:43;96248.47;;;6.81;71.49
16094;BME280;8151;47.824;12.092;2023-12-20T06:05:11;96246.78;;;6.80;71.38
16094;BME280;8151;47.824;12.092;2023-12-20T06:07:41;96251.38;;;6.78;71.70
16094;BME280;8151;47.824;12.092;2023-12-20T06:10:10;96260.25;;;6.77;72.17
16094;BME280;8151;47.824;12.092;2023-12-20T06:12:39;96266.47;;;6.76;72.16
16094;BME280;8151;47.824;12.092;2023-12-20T06:15:08;96270.09;;;6.75;72.83
16094;BME280;8151;47.824;12.092;2023-12-20T06:17:36;96272.59;;;6.77;72.95
16094;BME280;8151;47.824;12.092;2023-12-20T06:20:06;96280.47;;;6.77;73.21
16094;BME280;8151;47.824;12.092;2023-12-20T06:22:36;96275.34;;;6.75;73.27
16094;BME280;8151;47.824;12.092;2023-12-20T06:25:06;96288.38;;;6.77;73.37
16094;BME280;8151;47.824;12.092;2023-12-20T06:27:35;96281.56;;;6.74;73.52
16094;BME280;8151;47.824;12.092;2023-12-20T06:30:04;96285.19;;;6.73;73.79
16094;BME280;8151;47.824;12.092;2023-12-20T06:32:33;96292.41;;;6.71;74.30
16094;BME280;8151;47.824;12.092;2023-12-20T06:35:02;96294.19;;;6.70;74.53
16094;BME280;8151;47.824;12.092;2023-12-20T06:37:32;96290.72;;;6.70;74.53
16094;BME280;8151;47.824;12.092;2023-12-20T06:40:00;96297.13;;;6.67;75.07
16094;BME280;8151;47.824;12.092;2023-12-20T06:42:30;96310.41;;;6.66;75.39
16094;BME280;8151;47.824;12.092;2023-12-20T06:45:06;96304.47;;;6.64;75.47
16094;BME280;8151;47.824;12.092;2023-12-20T06:47:34;96314.97;;;6.64;75.70
16094;BME280;8151;47.824;12.092;2023-12-20T06:50:03;96322.19;;;6.62;75.87
16094;BME280;8151;47.824;12.092;2023-12-20T06:52:32;96332.97;;;6.59;76.22
16094;BME280;8151;47.824;12.092;2023-12-20T06:55:00;96335.22;;;6.54;76.68
16094;BME280;8151;47.824;12.092;2023-12-20T06:57:30;96321.53;;;6.50;76.87
16094;BME280;8151;47.824;12.092;2023-12-20T06:59:59;96332.47;;;6.45;77.29
16094;BME280;8151;47.824;12.092;2023-12-20T07:02:27;96341.91;;;6.38;77.54
16094;BME280;8151;47.824;12.092;2023-12-20T07:04:57;96340.81;;;6.31;77.46
16094;BME280;8151;47.824;12.092;2023-12-20T07:07:26;96351.75;;;6.26;77.86
16094;BME280;8151;47.824;12.092;2023-12-20T07:09:54;96359.91;;;6.23;77.79
16094;BME280;8151;47.824;12.092;2023-12-20T07:12:23;96367.25;;;6.20;78.19
16094;BME280;8151;47.824;12.092;2023-12-20T07:14:53;96370.16;;;6.17;78.15
16094;BME280;8151;47.824;12.092;2023-12-20T07:17:21;96374.75;;;6.15;78.27
16094;BME280;8151;47.824;12.092;2023-12-20T07:19:50;96380.94;;;6.14;78.54
16094;BME280;8151;47.824;12.092;2023-12-20T07:22:19;96383.44;;;6.15;78.45
16094;BME280;8151;47.824;12.092;2023-12-20T07:24:47;96375.41;;;6.17;78.45
16094;BME280;8151;47.824;12.092;2023-12-20T07:27:17;96387.72;;;6.16;78.31
16094;BME280;8151;47.824;12.092;2023-12-20T07:29:45;96389.66;;;6.14;78.78
16094;BME280;8151;47.824;12.092;2023-12-20T07:32:15;96385.50;;;6.11;78.69
16094;BME280;8151;47.824;12.092;2023-12-20T07:34:43;96383.16;;;6.08;78.86
16094;BME280;8151;47.824;12.092;2023-12-20T07:37:12;96392.03;;;6.07;78.59
16094;BME280;8151;47.824;12.092;2023-12-20T07:39:41;96397.53;;;6.04;78.90
16094;BME280;8151;47.824;12.092;2023-12-20T07:42:10;96397.53;;;6.04;78.93
16094;BME280;8151;47.824;12.092;2023-12-20T07:44:38;96400.28;;;6.03;78.86
16094;BME280;8151;47.824;12.092;2023-12-20T07:47:07;96403.78;;;6.03;79.06
16094;BME280;8151;47.824;12.092;2023-12-20T07:49:36;96402.41;;;5.99;78.92
16094;BME280;8151;47.824;12.092;2023-12-20T07:52:05;96405.16;;;5.98;78.82
16094;BME280;8151;47.824;12.092;2023-12-20T07:54:35;96390.47;;;5.95;78.96
16094;BME280;8151;47.824;12.092;2023-12-20T07:57:04;96392.25;;;5.95;78.79
16094;BME280;8151;47.824;12.092;2023-12-20T07:59:32;96396.69;;;5.94;79.27
16094;BME280;8151;47.824;12.092;2023-12-20T08:02:01;96401.00;;;5.95;79.01
16094;BME280;8151;47.824;12.092;2023-12-20T08:04:30;96395.00;;;5.93;79.57
16094;BME280;8151;47.824;12.092;2023-12-20T08:07:01;96396.00;;;5.92;79.48
16094;BME280;8151;47.824;12.092;2023-12-20T08:09:30;96385.38;;;5.94;78.90
16094;BME280;8151;47.824;12.092;2023-12-20T08:11:59;96389.63;;;5.95;79.62
16094;BME280;8151;47.824;12.092;2023-12-20T08:14:27;96386.19;;;5.94;78.94
16094;BME280;8151;47.824;12.092;2023-12-20T08:16:56;96392.38;;;5.93;79.42
16094;BME280;8151;47.824;12.092;2023-12-20T08:19:24;96395.00;;;5.93;79.21
16094;BME280;8151;47.824;12.092;2023-12-20T08:21:53;96398.38;;;5.95;79.43
16094;BME280;8151;47.824;12.092;2023-12-20T08:24:23;96403.47;;;5.97;79.21
16094;BME280;8151;47.824;12.092;2023-12-20T08:26:51;96402.41;;;5.99;79.30
16094;BME280;8151;47.824;12.092;2023-12-20T08:29:20;96397.66;;;6.03;79.37
16094;BME280;8151;47.824;12.092;2023-12-20T08:31:52;96394.78;;;6.06;79.53
16094;BME280;8151;47.824;12.092;2023-12-20T08:34:21;96401.53;;;6.08;79.06
16094;BME280;8151;47.824;12.092;2023-12-20T08:36:50;96409.41;;;6.08;79.56
16094;BME280;8151;47.824;12.092;2023-12-20T08:39:18;96404.84;;;6.10;79.59
16094;BME280;8151;47.824;12.092;2023-12-20T08:41:49;96407.47;;;6.10;79.24
16094;BME280;8151;47.824;12.092;2023-12-20T08:44:17;96425.75;;;6.12;79.34
16094;BME280;8151;47.824;12.092;2023-12-20T08:46:45;96424.66;;;6.15;79.37
16094;BME280;8151;47.824;12.092;2023-12-20T08:49:14;96423.66;;;6.16;79.82
16094;BME280;8151;47.824;12.092;2023-12-20T08:51:42;96428.78;;;6.17;79.62
16094;BME280;8151;47.824;12.092;2023-12-20T08:54:11;96421.84;;;6.16;79.85
16094;BME280;8151;47.824;12.092;2023-12-20T08:56:40;96420.09;;;6.17;79.70
16094;BME280;8151;47.824;12.092;2023-12-20T08:59:10;96427.13;;;6.16;79.36
16094;BME280;8151;47.824;12.092;2023-12-20T09:01:39;96431.28;;;6.19;79.69
16094;BME280;8151;47.824;12.092;2023-12-20T09:04:07;96432.91;;;6.20;79.29
16094;BME280;8151;47.824;12.092;2023-12-20T09:06:36;96432.09;;;6.19;79.64
16094;BME280;8151;47.824;12.092;2023-12-20T09:09:04;96434.59;;;6.21;79.78
16094;BME280;8151;47.824;12.092;2023-12-20T09:11:35;96426.72;;;6.21;79.47
16094;BME280;8151;47.824;12.092;2023-12-20T09:14:04;96425.72;;;6.22;79.47
16094;BME280;8151;47.824;12.092;2023-12-20T09:16:33;96430.97;;;6.22;79.41
16094;BME280;8151;47.824;12.092;2023-12-20T09:19:02;96430.97;;;6.22;79.28
16094;BME280;8151;47.824;12.092;2023-12-20T09:21:30;96435.41;;;6.21;79.69
16094;BME280;8151;47.824;12.092;2023-12-20T09:23:59;96432.78;;;6.21;79.72
16094;BME280;8151;47.824;12.092;2023-12-20T09:26:27;96437.22;;;6.21;79.46
16094;BME280;8151;47.824;12.092;2023-12-20T09:28:56;96434.72;;;6.19;79.76
16094;BME280;8151;47.824;12.092;2023-12-20T09:31:24;96430.59;;;6.17;79.55
16094;BME280;8151;47.824;12.092;2023-12-20T09:33:54;96424.66;;;6.15;79.66
16094;BME280;8151;47.824;12.092;2023-12-20T09:36:23;96422.28;;;6.11;80.17
16094;BME280;8151;47.824;12.092;2023-12-20T09:38:51;96421.59;;;6.09;79.98
16094;BME280;8151;47.824;12.092;2023-12-20T09:41:20;96419.94;;;6.08;79.81
16094;BME280;8151;47.824;12.092;2023-12-20T09:43:48;96414.97;;;6.05;79.89
16094;BME280;8151;47.824;12.092;2023-12-20T09:46:19;96419.09;;;6.08;79.69
16094;BME280;8151;47.824;12.092;2023-12-20T09:48:54;96421.72;;;6.08;80.13
16094;BME280;8151;47.824;12.092;2023-12-20T09:51:23;96433.06;;;6.08;80.43
16094;BME280;8151;47.824;12.092;2023-12-20T09:53:54;96420.78;;;6.09;79.99
16094;BME280;8151;47.824;12.092;2023-12-20T09:56:24;96404.16;;;6.08;79.89
16094;BME280;8151;47.824;12.092;2023-12-20T09:58:53;96411.78;;;6.11;80.12
16094;BME280;8151;47.824;12.092;2023-12-20T10:01:22;96406.25;;;6.15;80.34
16094;BME280;8151;47.824;12.092;2023-12-20T10:03:56;96405.28;;;6.16;80.41
16094;BME280;8151;47.824;12.092;2023-12-20T10:06:25;96400.84;;;6.16;80.19
16094;BME280;8151;47.824;12.092;2023-12-20T10:08:54;96403.47;;;6.16;80.19
16094;BME280;8151;47.824;12.092;2023-12-20T10:11:22;96400.72;;;6.18;80.42
16094;BME280;8151;47.824;12.092;2023-12-20T10:13:51;96391.56;;;6.22;80.07
16094;BME280;8151;47.824;12.092;2023-12-20T10:16:24;96393.94;;;6.25;80.00
16094;BME280;8151;47.824;12.092;2023-12-20T10:18:53;96392.13;;;6.25;80.20
16094;BME280;8151;47.824;12.092;2023-12-20T10:21:23;96391.19;;;6.26;79.83
16094;BME280;8151;47.824;12.092;2023-12-20T10:23:53;96379.69;;;6.27;79.92
16094;BME280;8151;47.824;12.092;2023-12-20T10:26:23;96369.84;;;6.29;79.80
16094;BME280;8151;47.824;12.092;2023-12-20T10:28:53;96377.59;;;6.31;79.63
16094;BME280;8151;47.824;12.092;2023-12-20T10:31:29;96379.28;;;6.32;80.13
16094;BME280;8151;47.824;12.092;2023-12-20T10:33:59;96382.59;;;6.34;80.07
16094;BME280;8151;47.824;12.092;2023-12-20T10:36:32;96378.00;;;6.36;79.87
16094;BME280;8151;47.824;12.092;2023-12-20T10:39:01;96376.22;;;6.37;79.65
16094;BME280;8151;47.824;12.092;2023-12-20T10:41:32;96372.75;;;6.36;80.09
16094;BME280;8151;47.824;12.092;2023-12-20T10:44:02;96369.84;;;6.39;79.55
16094;BME280;8151;47.824;12.092;2023-12-20T10:46:32;96365.94;;;6.43;79.51
16094;BME280;8151;47.824;12.092;2023-12-20T10:49:02;96362.22;;;6.46;79.93
16094;BME280;8151;47.824;12.092;2023-12-20T10:51:33;96358.47;;;6.48;79.93
16094;BME280;8151;47.824;12.092;2023-12-20T10:54:02;96367.84;;;6.51;79.84
16094;BME280;8151;47.824;12.092;2023-12-20T10:56:32;96370.91;;;6.56;79.95
16094;BME280;8151;47.824;12.092;2023-12-20T10:59:03;96358.44;;;6.58;79.76
16094;BME280;8151;47.824;12.092;2023-12-20T11:01:33;96363.56;;;6.60;80.02
16094;BME280;8151;47.824;12.092;2023-12-20T11:04:07;96359.66;;;6.64;80.03
16094;BME280;8151;47.824;12.092;2023-12-20T11:06:46;96360.50;;;6.64;79.69
16094;BME280;8151;47.824;12.092;2023-12-20T11:09:22;96367.41;;;6.65;80.00
16094;BME280;8151;47.824;12.092;2023-12-20T11:11:59;96358.84;;;6.63;80.07
16094;BME280;8151;47.824;12.092;2023-12-20T11:14:34;96361.63;;;6.62;79.98
16094;BME280;8151;47.824;12.092;2023-12-20T11:17:07;96353.19;;;6.58;80.01
16094;BME280;8151;47.824;12.092;2023-12-20T11:19:37;96349.06;;;6.56;80.04
16094;BME280;8151;47.824;12.092;2023-12-20T11:22:09;96346.44;;;6.56;80.66
16094;BME280;8151;47.824;12.092;2023-12-20T11:24:44;96355.00;;;6.58;80.51
16094;BME280;8151;47.824;12.092;2023-12-20T11:27:13;96354.00;;;6.59;80.54
16094;BME280;8151;47.824;12.092;2023-12-20T11:29:41;96352.75;;;6.63;80.39
16094;BME280;8151;47.824;12.092;2023-12-20T11:32:29;96358.53;;;6.66;80.38
16094;BME280;8151;47.824;12.092;2023-12-20T11:34:59;96348.88;;;6.67;80.03
16094;BME280;8151;47.824;12.092;2023-12-20T11:37:30;96351.34;;;6.68;80.27
16094;BME280;8151;47.824;12.092;2023-12-20T11:40:00;96359.22;;;6.68;80.16
16094;BME280;8151;47.824;12.092;2023-12-20T11:42:32;96360.06;;;6.69;80.71
16094;BME280;8151;47.824;12.092;2023-12-20T11:45:02;96351.75;;;6.74;80.68
16094;BME280;8151;47.824;12.092;2023-12-20T11:47:31;96354.91;;;6.77;80.35
16094;BME280;8151;47.824;12.092;2023-12-20T11:50:00;96357.41;;;6.79;80.52
16094;BME280;8151;47.824;12.092;2023-12-20T11:52:32;96347.72;;;6.79;80.70
16094;BME280;8151;47.824;12.092;2023-12-20T11:55:01;96346.50;;;6.74;80.67
16094;BME280;8151;47.824;12.092;2023-12-20T11:57:31;96333.47;;;6.72;80.77
16094;BME280;8151;47.824;12.092;2023-12-20T11:59:59;96340.53;;;6.72;81.10
16094;BME280;8151;47.824;12.092;2023-12-20T12:02:27;96344.81;;;6.73;81.56
16094;BME280;8151;47.824;12.092;2023-12-20T12:04:56;96334.84;;;6.76;81.76
16094;BME280;8151;47.824;12.092;2023-12-20T12:07:25;96335.94;;;6.83;81.51
16094;BME280;8151;47.824;12.092;2023-12-20T12:09:55;96331.88;;;6.89;81.51
16094;BME280;8151;47.824;12.092;2023-12-20T12:12:24;96333.38;;;6.92;81.10
16094;BME280;8151;47.824;12.092;2023-12-20T12:14:54;96337.00;;;6.90;81.19
16094;BME280;8151;47.824;12.092;2023-12-20T12:17:24;96338.66;;;6.92;81.49
16094;BME280;8151;47.824;12.092;2023-12-20T12:20:01;96325.63;;;6.90;81.86
16094;BME280;8151;47.824;12.092;2023-12-20T12:22:30;96332.03;;;6.87;81.94
16094;BME280;8151;47.824;12.092;2023-12-20T12:25:09;96326.19;;;6.94;82.08
16094;BME280;8151;47.824;12.092;2023-12-20T12:27:40;96328.13;;;6.92;82.28
16094;BME280;8151;47.824;12.092;2023-12-20T12:30:09;96326.75;;;6.87;82.42
16094;BME280;8151;47.824;12.092;2023-12-20T12:32:40;96320.97;;;6.84;82.52
16094;BME280;8151;47.824;12.092;2023-12-20T12:35:09;96322.50;;;6.86;82.58
16094;BME280;8151;47.824;12.092;2023-12-20T12:37:39;96324.53;;;6.93;82.40
16094;BME280;8151;47.824;12.092;2023-12-20T12:40:11;96322.06;;;6.91;82.76
16094;BME280;8151;47.824;12.092;2023-12-20T12:42:41;96322.59;;;6.95;82.82
16094;BME280;8151;47.824;12.092;2023-12-20T12:45:10;96320.63;;;6.97;83.03
16094;BME280;8151;47.824;12.092;2023-12-20T12:47:40;96319.50;;;6.99;82.63
16094;BME280;8151;47.824;12.092;2023-12-20T12:50:09;96317.00;;;6.98;83.01
16094;BME280;8151;47.824;12.092;2023-12-20T12:52:37;96319.50;;;6.99;82.92
16094;BME280;8151;47.824;12.092;2023-12-20T12:55:06;96318.69;;;6.99;82.96
16094;BME280;8151;47.824;12.092;2023-12-20T12:57:36;96311.63;;;6.99;83.20
16094;BME280;8151;47.824;12.092;2023-12-20T13:00:06;96309.81;;;7.00;83.25
16094;BME280;8151;47.824;12.092;2023-12-20T13:02:36;96309.13;;;6.98;83.10
16094;BME280;8151;47.824;12.092;2023-12-20T13:05:05;96304.19;;;6.95;83.17
16094;BME280;8151;47.824;12.092;2023-12-20T13:07:35;96306.13;;;6.93;83.43
16094;BME280;8151;47.824;12.092;2023-12-20T13:10:05;96294.94;;;6.90;83.51
16094;BME280;8151;47.824;12.092;2023-12-20T13:12:35;96310.72;;;6.90;83.42
16094;BME280;8151;47.824;12.092;2023-12-20T13:15:04;96299.34;;;6.90;83.79
16094;BME280;8151;47.824;12.092;2023-12-20T13:17:33;96293.94;;;6.92;83.85
16094;BME280;8151;47.824;12.092;2023-12-20T13:20:01;96294.63;;;6.94;83.92